createdAt,value
2023-02-11T00:00:41.776Z,97668.88
2023-02-11T00:03:09.079Z,97665.41
2023-02-11T00:05:35.714Z,97664.59
2023-02-11T00:08:02.227Z,97665.34
2023-02-11T00:10:28.730Z,97655.25
2023-02-11T00:12:55.316Z,97649.31
2023-02-11T00:15:21.838Z,97642.50
2023-02-11T00:17:48.324Z,97651.78
2023-02-11T00:20:15.151Z,97650.03
2023-02-11T00:22:41.665Z,97634.00
2023-02-11T00:25:08.305Z,97642.34
2023-02-11T00:27:36.855Z,97633.00
2023-02-11T00:30:05.312Z,97618.59
2023-02-11T00:32:32.024Z,97617.75
2023-02-11T00:34:58.534Z,97622.81
2023-02-11T00:37:24.989Z,97617.66
2023-02-11T00:39:51.552Z,97616.81
2023-02-11T00:42:18.050Z,97609.09
2023-02-11T00:44:44.573Z,97592.88
2023-02-11T00:47:11.019Z,97583.53
2023-02-11T00:49:39.595Z,97569.88
2023-02-11T00:52:06.140Z,97569.91
2023-02-11T00:54:32.621Z,97557.19
2023-02-11T00:56:59.047Z,97544.47
2023-02-11T00:59:25.617Z,97552.09
2023-02-11T01:01:52.062Z,97547.06
2023-02-11T01:04:18.555Z,97551.22
2023-02-11T01:06:45.034Z,97546.16
2023-02-11T01:09:11.686Z,97544.34
2023-02-11T01:11:38.139Z,97531.00
2023-02-11T01:14:04.769Z,97529.19
2023-02-11T01:16:31.301Z,97519.97
2023-02-11T01:18:58.879Z,97514.03
2023-02-11T01:21:25.855Z,97498.00
2023-02-11T01:23:52.783Z,97484.47
2023-02-11T01:26:19.294Z,97481.13
2023-02-11T01:28:45.833Z,97465.94
2023-02-11T01:31:12.922Z,97464.06
2023-02-11T01:33:40.030Z,97454.94
2023-02-11T01:36:07.425Z,97453.41
2023-02-11T01:38:34.349Z,97450.78
2023-02-11T01:41:07.119Z,97457.53
2023-02-11T01:43:37.629Z,97476.88
2023-02-11T01:46:29.904Z,97487.00
2023-02-11T01:49:01.669Z,97485.47
2023-02-11T01:51:33.391Z,97477.19
2023-02-11T01:54:19.587Z,97472.03
2023-02-11T01:57:08.558Z,97461.97
2023-02-11T01:59:41.480Z,97456.00
2023-02-11T02:02:10.940Z,97437.44
2023-02-11T02:04:46.780Z,97438.16
2023-02-11T02:07:19.548Z,97430.63
2023-02-11T02:09:50.016Z,97421.41
2023-02-11T02:12:16.486Z,97407.16
2023-02-11T02:14:42.999Z,97404.69
2023-02-11T02:17:37.051Z,97386.13
2023-02-11T02:20:29.296Z,97374.28
2023-02-11T02:23:23.649Z,97378.66
2023-02-11T02:25:58.179Z,97385.47
2023-02-11T02:29:02.630Z,97376.97
2023-02-11T02:31:40.952Z,97379.06
2023-02-11T02:34:16.021Z,97376.03
2023-02-11T02:37:03.831Z,97370.94
2023-02-11T02:39:34.096Z,97365.53
2023-02-11T02:42:00.951Z,97348.91
2023-02-11T02:44:28.246Z,97341.81
2023-02-11T02:46:54.890Z,97354.69
2023-02-11T02:49:21.385Z,97355.25
2023-02-11T02:52:10.452Z,97350.31
2023-02-11T02:55:14.396Z,97342.72
2023-02-11T02:58:03.258Z,97346.00
2023-02-11T03:00:32.551Z,97333.38
2023-02-11T03:03:07.592Z,97333.47
2023-02-11T03:05:52.510Z,97329.34
2023-02-11T03:08:51.345Z,97332.69
2023-02-11T03:11:19.315Z,97330.28
2023-02-11T03:13:46.925Z,97332.88
2023-02-11T03:16:23.409Z,97321.03
2023-02-11T03:18:54.131Z,97312.72
2023-02-11T03:21:20.934Z,97302.66
2023-02-11T03:23:53.990Z,97309.28
2023-02-11T03:26:28.992Z,97295.75
2023-02-11T03:29:20.062Z,97292.16
2023-02-11T03:31:57.819Z,97290.63
2023-02-11T03:34:50.859Z,97275.34
2023-02-11T03:37:21.557Z,97274.66
2023-02-11T03:39:52.829Z,97277.06
2023-02-11T03:42:19.561Z,97282.91
2023-02-11T03:44:56.611Z,97276.38
2023-02-11T03:47:25.378Z,97272.91
2023-02-11T03:49:53.826Z,97272.91
2023-02-11T03:52:21.002Z,97276.31
2023-02-11T03:54:50.421Z,97275.34
2023-02-11T03:57:16.951Z,97268.84
2023-02-11T03:59:55.542Z,97255.25
2023-02-11T04:02:24.259Z,97248.34
2023-02-11T04:04:50.985Z,97225.53
2023-02-11T04:07:17.470Z,97228.00
2023-02-11T04:09:43.916Z,97218.97
2023-02-11T04:12:10.386Z,97213.53
2023-02-11T04:14:36.845Z,97203.66
2023-02-11T04:17:03.652Z,97205.59
2023-02-11T04:19:30.142Z,97194.00
2023-02-11T04:21:57.225Z,97194.28
2023-02-11T04:24:23.692Z,97200.16
2023-02-11T04:26:50.160Z,97199.53
2023-02-11T04:29:16.660Z,97198.66
2023-02-11T04:31:43.197Z,97181.75
2023-02-11T04:34:09.711Z,97180.94
2023-02-11T04:36:36.265Z,97185.00
2023-02-11T04:39:03.270Z,97175.03
2023-02-11T04:41:29.862Z,97164.66
2023-02-11T04:43:56.388Z,97157.34
2023-02-11T04:46:22.933Z,97142.16
2023-02-11T04:48:49.512Z,97139.53
2023-02-11T04:51:16.372Z,97127.66
2023-02-11T04:53:42.911Z,97125.88
2023-02-11T04:56:09.400Z,97111.75
2023-02-11T04:58:35.861Z,97107.56
2023-02-11T05:01:09.875Z,97114.16
2023-02-11T05:03:36.765Z,97112.50
2023-02-11T05:06:03.783Z,97123.41
2023-02-11T05:08:30.414Z,97114.66
2023-02-11T05:10:57.024Z,97102.78
2023-02-11T05:13:23.750Z,97103.47
2023-02-11T05:15:50.652Z,97083.44
2023-02-11T05:18:17.342Z,97095.22
2023-02-11T05:20:44.443Z,97083.63
2023-02-11T05:23:11.786Z,97078.25
2023-02-11T05:25:38.475Z,97073.34
2023-02-11T05:28:05.465Z,97067.38
2023-02-11T05:30:32.259Z,97065.50
2023-02-11T05:32:58.992Z,97058.81
2023-02-11T05:35:25.422Z,97079.28
2023-02-11T05:37:51.959Z,97080.41
2023-02-11T05:40:18.547Z,97076.34
2023-02-11T05:42:44.984Z,97072.09
2023-02-11T05:45:11.783Z,97080.63
2023-02-11T05:47:38.225Z,97080.78
2023-02-11T05:50:04.825Z,97063.88
2023-02-11T05:52:31.351Z,97065.41
2023-02-11T05:54:57.962Z,97072.31
2023-02-11T05:57:24.470Z,97068.00
2023-02-11T05:59:51.041Z,97055.34
2023-02-11T06:02:17.628Z,97054.53
2023-02-11T06:04:44.362Z,97043.53
2023-02-11T06:07:10.915Z,97045.34
2023-02-11T06:09:37.813Z,97041.75
2023-02-11T06:12:04.576Z,97035.09
2023-02-11T06:14:33.773Z,97038.50
2023-02-11T06:17:00.490Z,97051.09
2023-02-11T06:19:27.039Z,97019.16
2023-02-11T06:21:53.482Z,97036.75
2023-02-11T06:24:38.402Z,97024.97
2023-02-11T06:27:06.486Z,97029.28
2023-02-11T06:29:33.243Z,97023.31
2023-02-11T06:31:59.926Z,97023.22
2023-02-11T06:34:26.500Z,97023.31
2023-02-11T06:36:53.038Z,97014.03
2023-02-11T06:39:19.630Z,97024.91
2023-02-11T06:41:46.237Z,97008.91
2023-02-11T06:44:13.459Z,96992.84
2023-02-11T06:46:40.054Z,97005.41
2023-02-11T06:49:06.754Z,96999.50
2023-02-11T06:51:33.661Z,97001.22
2023-02-11T06:54:00.195Z,96988.53
2023-02-11T06:56:27.531Z,96995.09
2023-02-11T06:58:55.457Z,96979.94
2023-02-11T07:01:22.585Z,96976.50
2023-02-11T07:03:49.994Z,96964.72
2023-02-11T07:06:20.032Z,96973.91
2023-02-11T07:08:47.249Z,96978.34
2023-02-11T07:11:24.340Z,96978.38
2023-02-11T07:13:51.286Z,96979.31
2023-02-11T07:16:18.673Z,96982.72
2023-02-11T07:18:46.105Z,96997.19
2023-02-11T07:21:14.891Z,96986.13
2023-02-11T07:23:41.928Z,96976.09
2023-02-11T07:26:12.012Z,96988.81
2023-02-11T07:28:39.219Z,96983.81
2023-02-11T07:31:10.165Z,96974.44
2023-02-11T07:33:37.181Z,96978.84
2023-02-11T07:36:05.289Z,96979.78
2023-02-11T07:38:32.581Z,96974.88
2023-02-11T07:41:03.480Z,96958.91
2023-02-11T07:43:31.134Z,96957.41
2023-02-11T07:45:57.807Z,96964.97
2023-02-11T07:48:24.409Z,96955.69
2023-02-11T07:50:50.945Z,96965.66
2023-02-11T07:53:17.444Z,96962.28
2023-02-11T07:55:44.093Z,96969.88
2023-02-11T07:58:10.597Z,96951.16
2023-02-11T08:00:37.237Z,96967.13
2023-02-11T08:03:03.919Z,96960.38
2023-02-11T08:05:30.609Z,96952.88
2023-02-11T08:07:57.126Z,96965.28
2023-02-11T08:10:23.734Z,96949.34
2023-02-11T08:12:50.223Z,96944.19
2023-02-11T08:15:16.686Z,96945.88
2023-02-11T08:17:43.193Z,96949.31
2023-02-11T08:20:10.188Z,96953.44
2023-02-11T08:22:36.751Z,96936.78
2023-02-11T08:25:03.409Z,96942.78
2023-02-11T08:27:29.990Z,96937.03
2023-02-11T08:29:56.676Z,96931.31
2023-02-11T08:32:25.505Z,96917.19
2023-02-11T08:34:52.674Z,96929.63
2023-02-11T08:37:19.653Z,96919.66
2023-02-11T08:39:47.337Z,96923.19
2023-02-11T08:42:15.592Z,96913.91
2023-02-11T08:44:42.116Z,96905.34
2023-02-11T08:47:08.622Z,96907.91
2023-02-11T08:49:35.241Z,96901.03
2023-02-11T08:52:04.102Z,96890.13
2023-02-11T08:54:31.552Z,96865.78
2023-02-11T08:56:58.150Z,96859.03
2023-02-11T08:59:24.662Z,96869.00
2023-02-11T09:01:51.278Z,96860.63
2023-02-11T09:04:17.950Z,96850.53
2023-02-11T09:06:44.735Z,96836.97
2023-02-11T09:09:14.859Z,96830.22
2023-02-11T09:11:43.507Z,96819.97
2023-02-11T09:14:17.352Z,96835.16
2023-02-11T09:16:43.932Z,96834.41
2023-02-11T09:19:10.836Z,96827.66
2023-02-11T09:21:37.330Z,96839.31
2023-02-11T09:24:04.031Z,96830.91
2023-02-11T09:26:32.962Z,96839.34
2023-02-11T09:29:00.301Z,96842.53
2023-02-11T09:31:28.933Z,96856.91
2023-02-11T09:33:58.282Z,96841.63
2023-02-11T09:36:27.031Z,96854.34
2023-02-11T09:38:53.584Z,96852.53
2023-02-11T09:41:22.867Z,96857.59
2023-02-11T09:43:52.338Z,96883.63
2023-02-11T09:46:20.326Z,96878.59
2023-02-11T09:48:48.150Z,96891.25
2023-02-11T09:51:48.309Z,96892.19
2023-02-11T09:54:30.378Z,96881.22
2023-02-11T09:56:56.956Z,96861.97
2023-02-11T09:59:23.536Z,96839.34
2023-02-11T10:01:57.913Z,96836.78
2023-02-11T10:04:51.615Z,96844.41
2023-02-11T10:08:17.020Z,96846.03
2023-02-11T10:11:00.020Z,96854.47
2023-02-11T10:13:45.100Z,96842.66
2023-02-11T10:16:26.618Z,96844.41
2023-02-11T10:19:11.772Z,96840.00
2023-02-11T10:21:56.600Z,96829.97
2023-02-11T10:24:23.299Z,96801.44
2023-02-11T10:26:51.300Z,96803.88
2023-02-11T10:29:40.030Z,96795.41
2023-02-11T10:32:27.281Z,96786.06
2023-02-11T10:34:56.374Z,96791.13
2023-02-11T10:37:22.886Z,96770.91
2023-02-11T10:39:49.340Z,96766.69
2023-02-11T10:42:15.949Z,96764.91
2023-02-11T10:44:58.268Z,96770.94
2023-02-11T10:47:28.017Z,96754.81
2023-02-11T10:49:54.900Z,96752.97
2023-02-11T10:52:27.492Z,96735.28
2023-02-11T10:55:01.803Z,96733.38
2023-02-11T10:57:32.464Z,96756.13
2023-02-11T11:00:21.044Z,96758.56
2023-02-11T11:02:54.500Z,96744.22
2023-02-11T11:05:27.144Z,96750.06
2023-02-11T11:07:55.839Z,96736.66
2023-02-11T11:10:47.013Z,96735.75
2023-02-11T11:13:28.722Z,96741.78
2023-02-11T11:16:13.668Z,96770.28
2023-02-11T11:18:41.695Z,96764.31
2023-02-11T11:21:15.361Z,96790.50
2023-02-11T11:23:48.402Z,96797.97
2023-02-11T11:26:15.865Z,96780.19
2023-02-11T11:29:02.934Z,96777.84
2023-02-11T11:31:35.935Z,96772.66
2023-02-11T11:34:32.405Z,96771.81
2023-02-11T11:37:00.757Z,96765.19
2023-02-11T11:39:32.077Z,96760.00
2023-02-11T11:42:05.564Z,96761.78
2023-02-11T11:44:33.894Z,96748.97
2023-02-11T11:47:13.424Z,96738.13
2023-02-11T11:50:02.857Z,96742.25
2023-02-11T11:52:32.012Z,96741.50
2023-02-11T11:55:03.655Z,96736.44
2023-02-11T11:57:31.394Z,96733.91
2023-02-11T11:59:58.218Z,96724.59
2023-02-11T12:03:03.606Z,96722.06
2023-02-11T12:05:51.574Z,96727.09
2023-02-11T12:08:27.121Z,96733.66
2023-02-11T12:11:11.198Z,96725.34
2023-02-11T12:13:53.176Z,96731.22
2023-02-11T12:16:28.657Z,96722.72
2023-02-11T12:19:26.833Z,96727.63
2023-02-11T12:21:59.189Z,96723.41
2023-02-11T12:24:43.423Z,96731.84
2023-02-11T12:27:26.694Z,96730.81
2023-02-11T12:30:04.644Z,96723.97
2023-02-11T12:32:52.976Z,96718.97
2023-02-11T12:35:22.450Z,96724.72
2023-02-11T12:37:54.766Z,96726.50
2023-02-11T12:40:25.274Z,96721.28
2023-02-11T12:43:16.507Z,96731.22
2023-02-11T12:46:01.448Z,96734.38
2023-02-11T12:48:46.529Z,96720.97
2023-02-11T12:51:24.723Z,96714.81
2023-02-11T12:54:06.972Z,96709.75
2023-02-11T12:56:46.814Z,96718.84
2023-02-11T12:59:28.176Z,96712.25
2023-02-11T13:01:55.836Z,96724.47
2023-02-11T13:04:37.730Z,96729.44
2023-02-11T13:07:28.804Z,96718.50
2023-02-11T13:10:02.083Z,96714.25
2023-02-11T13:13:05.246Z,96723.50
2023-02-11T13:15:31.960Z,96719.31
2023-02-11T13:18:06.908Z,96715.91
2023-02-11T13:20:40.510Z,96719.78
2023-02-11T13:23:13.036Z,96724.06
2023-02-11T13:26:10.965Z,96714.44
2023-02-11T13:29:05.163Z,96718.19
2023-02-11T13:31:32.269Z,96718.97
2023-02-11T13:33:58.913Z,96711.47
2023-02-11T13:36:27.354Z,96720.34
2023-02-11T13:38:55.182Z,96721.19
2023-02-11T13:41:33.776Z,96713.75
2023-02-11T13:44:03.391Z,96713.75
2023-02-11T13:46:53.849Z,96719.66
2023-02-11T13:49:32.202Z,96716.44
2023-02-11T13:52:00.061Z,96729.13
2023-02-11T13:54:31.179Z,96717.13
2023-02-11T13:57:19.333Z,96713.84
2023-02-11T13:59:57.162Z,96717.09
2023-02-11T14:02:46.676Z,96709.63
2023-02-11T14:05:42.235Z,96713.13
2023-02-11T14:08:30.245Z,96709.78
2023-02-11T14:10:57.432Z,96710.56
2023-02-11T14:13:36.431Z,96712.97
2023-02-11T14:16:31.689Z,96703.03
2023-02-11T14:19:06.243Z,96709.00
2023-02-11T14:21:38.303Z,96711.31
2023-02-11T14:24:05.009Z,96720.44
2023-02-11T14:26:41.622Z,96714.28
2023-02-11T14:29:17.571Z,96714.41
2023-02-11T14:31:57.931Z,96724.41
2023-02-11T14:34:58.867Z,96728.72
2023-02-11T14:38:05.180Z,96717.69
2023-02-11T14:41:13.240Z,96731.78
2023-02-11T14:43:43.068Z,96731.91
2023-02-11T14:46:09.924Z,96733.53
2023-02-11T14:48:38.111Z,96727.78
2023-02-11T14:51:16.238Z,96730.38
2023-02-11T14:53:45.342Z,96730.22
2023-02-11T14:56:28.074Z,96732.72
2023-02-11T14:58:55.273Z,96733.53
2023-02-11T15:01:36.721Z,96735.28
2023-02-11T15:04:05.495Z,96741.28
2023-02-11T15:06:42.978Z,96736.41
2023-02-11T15:09:24.081Z,96751.50
2023-02-11T15:11:52.534Z,96752.38
2023-02-11T15:14:33.523Z,96746.47
2023-02-11T15:17:05.737Z,96754.19
2023-02-11T15:19:37.683Z,96738.00
2023-02-11T15:22:06.683Z,96744.66
2023-02-11T15:24:35.443Z,96746.44
2023-02-11T15:27:16.341Z,96755.53
2023-02-11T15:29:49.356Z,96750.91
2023-02-11T15:32:24.683Z,96752.41
2023-02-11T15:34:53.342Z,96756.59
2023-02-11T15:37:24.024Z,96753.94
2023-02-11T15:39:51.824Z,96760.00
2023-02-11T15:42:19.530Z,96757.53
2023-02-11T15:44:47.960Z,96758.41
2023-02-11T15:47:21.355Z,96751.53
2023-02-11T15:49:48.587Z,96755.72
2023-02-11T15:52:22.445Z,96763.38
2023-02-11T15:54:49.061Z,96763.31
2023-02-11T15:57:16.380Z,96767.22
2023-02-11T15:59:50.655Z,96763.38
2023-02-11T16:02:22.460Z,96763.31
2023-02-11T16:04:54.704Z,96765.91
2023-02-11T16:07:46.834Z,96773.25
2023-02-11T16:10:18.078Z,96790.56
2023-02-11T16:12:56.632Z,96785.94
2023-02-11T16:15:56.813Z,96787.78
2023-02-11T16:18:37.800Z,96785.41
2023-02-11T16:21:07.895Z,96798.91
2023-02-11T16:23:38.708Z,96806.13
2023-02-11T16:26:32.639Z,96804.91
2023-02-11T16:29:05.085Z,96808.44
2023-02-11T16:31:36.970Z,96819.28
2023-02-11T16:34:11.062Z,96818.97
2023-02-11T16:36:37.517Z,96814.72
2023-02-11T16:39:04.144Z,96820.25
2023-02-11T16:41:30.681Z,96812.09
2023-02-11T16:43:58.393Z,96815.47
2023-02-11T16:46:24.982Z,96826.00
2023-02-11T16:48:51.473Z,96831.25
2023-02-11T16:51:18.130Z,96827.63
2023-02-11T16:53:44.652Z,96832.81
2023-02-11T16:56:18.092Z,96835.03
2023-02-11T16:58:45.048Z,96829.19
2023-02-11T17:01:13.942Z,96830.00
2023-02-11T17:03:41.041Z,96837.69
2023-02-11T17:06:09.733Z,96842.34
2023-02-11T17:08:36.259Z,96845.81
2023-02-11T17:11:03.364Z,96858.44
2023-02-11T17:13:29.861Z,96856.53
2023-02-11T17:15:57.218Z,96871.13
2023-02-11T17:18:23.736Z,96859.28
2023-02-11T17:20:50.338Z,96869.41
2023-02-11T17:23:16.811Z,96871.16
2023-02-11T17:25:43.364Z,96874.00
2023-02-11T17:28:12.031Z,96878.81
2023-02-11T17:30:41.320Z,96880.66
2023-02-11T17:33:07.836Z,96892.66
2023-02-11T17:35:34.278Z,96889.19
2023-02-11T17:38:01.447Z,96896.94
2023-02-11T17:40:27.948Z,96900.16
2023-02-11T17:42:54.472Z,96902.69
2023-02-11T17:45:22.342Z,96901.75
2023-02-11T17:47:49.467Z,96912.63
2023-02-11T17:50:16.139Z,96914.34
2023-02-11T17:52:42.803Z,96914.16
2023-02-11T17:55:09.338Z,96923.41
2023-02-11T17:57:36.511Z,96926.44
2023-02-11T18:00:05.129Z,96922.09
2023-02-11T18:02:31.685Z,96929.81
2023-02-11T18:04:58.786Z,96933.13
2023-02-11T18:07:26.391Z,96939.25
2023-02-11T18:09:53.306Z,96941.75
2023-02-11T18:12:26.288Z,96942.69
2023-02-11T18:14:56.118Z,96945.13
2023-02-11T18:17:24.150Z,96945.13
2023-02-11T18:19:50.809Z,96941.94
2023-02-11T18:22:17.938Z,96940.63
2023-02-11T18:24:44.495Z,96947.63
2023-02-11T18:27:11.012Z,96953.84
2023-02-11T18:29:37.933Z,96950.28
2023-02-11T18:32:04.633Z,96958.66
2023-02-11T18:34:31.689Z,96963.97
2023-02-11T18:36:58.204Z,96966.78
2023-02-11T18:39:26.410Z,96967.75
2023-02-11T18:41:59.779Z,96976.75
2023-02-11T18:44:26.814Z,96969.31
2023-02-11T18:46:53.506Z,96981.09
2023-02-11T18:49:20.802Z,96978.56
2023-02-11T18:51:47.416Z,96985.13
2023-02-11T18:54:13.956Z,96988.56
2023-02-11T18:56:40.881Z,96991.13
2023-02-11T18:59:07.592Z,96982.88
2023-02-11T19:01:34.355Z,96991.13
2023-02-11T19:04:04.397Z,96986.31
2023-02-11T19:06:34.079Z,96992.03
2023-02-11T19:09:04.468Z,97000.75
2023-02-11T19:11:47.661Z,97005.94
2023-02-11T19:14:19.884Z,96997.75
2023-02-11T19:16:47.882Z,97010.28
2023-02-11T19:19:14.497Z,97000.97
2023-02-11T19:21:43.496Z,97011.03
2023-02-11T19:24:10.581Z,97018.50
2023-02-11T19:26:37.491Z,97022.34
2023-02-11T19:29:05.486Z,97032.59
2023-02-11T19:31:32.722Z,97040.59
2023-02-11T19:34:00.348Z,97043.72
2023-02-11T19:36:26.849Z,97044.34
2023-02-11T19:38:53.703Z,97042.56
2023-02-11T19:41:22.519Z,97034.50
2023-02-11T19:43:57.444Z,97042.16
2023-02-11T19:46:25.132Z,97049.72
2023-02-11T19:48:52.332Z,97051.16
2023-02-11T19:51:19.457Z,97056.53
2023-02-11T19:53:46.768Z,97057.19
2023-02-11T19:56:14.141Z,97064.13
2023-02-11T19:58:41.251Z,97067.16
2023-02-11T20:01:09.881Z,97077.25
2023-02-11T20:03:36.958Z,97079.88
2023-02-11T20:06:12.536Z,97088.34
2023-02-11T20:08:39.263Z,97089.28
2023-02-11T20:11:14.322Z,97101.19
2023-02-11T20:13:41.058Z,97100.34
2023-02-11T20:16:10.578Z,97113.53
2023-02-11T20:18:37.689Z,97112.59
2023-02-11T20:21:12.574Z,97115.09
2023-02-11T20:23:40.353Z,97116.69
2023-02-11T20:26:12.250Z,97124.47
2023-02-11T20:28:38.919Z,97126.75
2023-02-11T20:31:06.067Z,97143.34
2023-02-11T20:33:33.232Z,97149.94
2023-02-11T20:36:01.846Z,97144.03
2023-02-11T20:38:28.627Z,97151.56
2023-02-11T20:40:55.907Z,97152.47
2023-02-11T20:43:22.977Z,97163.69
2023-02-11T20:45:50.078Z,97158.78
2023-02-11T20:48:16.851Z,97159.13
2023-02-11T20:50:43.340Z,97165.91
2023-02-11T20:53:10.677Z,97180.22
2023-02-11T20:55:38.563Z,97185.41
2023-02-11T20:58:06.876Z,97192.13
2023-02-11T21:00:35.785Z,97189.59
2023-02-11T21:03:03.024Z,97198.88
2023-02-11T21:05:29.826Z,97208.59
2023-02-11T21:07:57.235Z,97204.09
2023-02-11T21:10:23.801Z,97210.53
2023-02-11T21:12:50.258Z,97220.16
2023-02-11T21:15:16.831Z,97219.50
2023-02-11T21:17:43.308Z,97214.28
2023-02-11T21:20:10.160Z,97227.13
2023-02-11T21:22:36.704Z,97230.41
2023-02-11T21:25:03.218Z,97240.09
2023-02-11T21:27:33.057Z,97241.84
2023-02-11T21:30:01.271Z,97247.91
2023-02-11T21:32:28.033Z,97252.28
2023-02-11T21:34:54.602Z,97257.88
2023-02-11T21:37:23.243Z,97275.00
2023-02-11T21:39:49.972Z,97284.47
2023-02-11T21:42:16.551Z,97292.22
2023-02-11T21:44:43.151Z,97290.78
2023-02-11T21:47:09.725Z,97285.94
2023-02-11T21:49:36.280Z,97292.84
2023-02-11T21:52:02.774Z,97289.63
2023-02-11T21:54:31.986Z,97303.41
2023-02-11T21:56:59.737Z,97307.78
2023-02-11T21:59:26.242Z,97306.97
2023-02-11T22:01:52.811Z,97320.38
2023-02-11T22:04:19.341Z,97322.28
2023-02-11T22:06:45.898Z,97327.53
2023-02-11T22:09:12.356Z,97320.63
2023-02-11T22:11:38.939Z,97319.00
2023-02-11T22:14:05.650Z,97322.66
2023-02-11T22:16:32.509Z,97326.03
2023-02-11T22:18:59.603Z,97336.88
2023-02-11T22:21:27.763Z,97338.09
2023-02-11T22:23:54.771Z,97347.41
2023-02-11T22:26:23.970Z,97352.06
2023-02-11T22:28:51.185Z,97355.94
2023-02-11T22:31:23.901Z,97360.22
2023-02-11T22:33:50.485Z,97375.44
2023-02-11T22:36:26.057Z,97388.31
2023-02-11T22:38:53.019Z,97395.88
2023-02-11T22:41:19.973Z,97401.75
2023-02-11T22:43:46.618Z,97417.31
2023-02-11T22:46:15.905Z,97425.88
2023-02-11T22:48:42.949Z,97429.34
2023-02-11T22:51:19.283Z,97432.19
2023-02-11T22:53:52.583Z,97441.41
2023-02-11T22:56:19.461Z,97442.78
2023-02-11T22:58:46.552Z,97437.16
2023-02-11T23:01:13.545Z,97446.06
2023-02-11T23:03:40.556Z,97455.44
2023-02-11T23:06:07.608Z,97458.31
2023-02-11T23:08:34.932Z,97456.66
2023-02-11T23:11:06.154Z,97451.03
2023-02-11T23:13:34.708Z,97455.88
2023-02-11T23:16:04.735Z,97459.47
2023-02-11T23:18:31.519Z,97464.78
2023-02-11T23:21:04.029Z,97475.13
2023-02-11T23:23:30.609Z,97469.09
2023-02-11T23:25:57.533Z,97479.41
2023-02-11T23:28:24.242Z,97476.22
2023-02-11T23:30:50.827Z,97481.50
2023-02-11T23:33:17.275Z,97483.09
2023-02-11T23:35:43.765Z,97489.19
2023-02-11T23:38:10.258Z,97496.09
2023-02-11T23:40:36.718Z,97493.63
2023-02-11T23:43:03.605Z,97486.91
2023-02-11T23:45:30.189Z,97495.44
2023-02-11T23:48:00.120Z,97500.63
2023-02-11T23:50:26.547Z,97512.34
2023-02-11T23:52:53.003Z,97515.72
2023-02-11T23:55:19.630Z,97526.63
2023-02-11T23:57:46.088Z,97526.63
